TimeCDT,TemperatureF,Dew PointF,Humidity,Sea Level PressureIn,VisibilityMPH,Wind Direction,Wind SpeedMPH,Gust SpeedMPH,PrecipitationIn,Events,Conditions,WindDirDegrees,DateUTC
12:56 AM,44.1,37.0,76,29.61,10.0,SE,23.0,36.8,0.00,Rain,Light Rain,130,2013-04-14 05:56:00
1:56 AM,42.1,39.9,92,29.58,5.0,SE,20.7,28.8,0.11,Rain,Rain,130,2013-04-14 06:56:00
2:56 AM,42.1,41.0,96,29.52,5.0,ESE,19.6,-,0.08,Rain,Light Rain,120,2013-04-14 07:56:00
3:03 AM,42.8,41.0,93,29.50,7.0,ESE,18.4,-,0.00,Rain,Light Rain,120,2013-04-14 08:03:00
3:11 AM,42.8,41.0,93,29.49,8.0,ESE,20.7,-,0.00,,Overcast,110,2013-04-14 08:11:00
3:25 AM,42.8,41.0,93,29.49,7.0,ESE,18.4,27.6,N/A,,Overcast,120,2013-04-14 08:25:00
3:56 AM,42.1,41.0,96,29.49,8.0,ESE,19.6,26.5,0.00,,Overcast,120,2013-04-14 08:56:00
4:24 AM,42.8,41.0,93,29.46,10.0,ESE,21.9,-,N/A,,Scattered Clouds,110,2013-04-14 09:24:00
4:56 AM,42.1,39.9,92,29.45,10.0,ESE,21.9,28.8,N/A,,Clear,110,2013-04-14 09:56:00
5:56 AM,43.0,39.9,89,29.40,10.0,ESE,18.4,28.8,N/A,,Clear,110,2013-04-14 10:56:00
6:56 AM,43.0,39.9,89,29.37,10.0,ESE,20.7,28.8,N/A,,Clear,120,2013-04-14 11:56:00
7:56 AM,43.0,39.9,89,29.33,10.0,ESE,18.4,-,N/A,,Partly Cloudy,110,2013-04-14 12:56:00
9:56 AM,50.0,45.0,83,29.33,10.0,Variable,5.8,-,N/A,,Clear,0,2013-04-14 14:56:00
10:22 AM,48.2,44.6,87,29.33,10.0,WNW,13.8,-,N/A,,Mostly Cloudy,290,2013-04-14 15:22:00
10:34 AM,48.2,44.6,87,29.32,10.0,NW,9.2,-,N/A,,Overcast,310,2013-04-14 15:34:00
10:56 AM,50.0,44.1,80,29.32,10.0,NNW,8.1,-,N/A,,Scattered Clouds,330,2013-04-14 15:56:00
11:56 AM,50.0,45.0,83,29.33,10.0,WNW,3.5,-,N/A,,Mostly Cloudy,300,2013-04-14 16:56:00
12:15 PM,48.2,44.6,87,29.36,10.0,West,13.8,-,N/A,,Overcast,270,2013-04-14 17:15:00
12:31 PM,50.0,44.6,82,29.36,10.0,West,10.4,-,N/A,,Scattered Clouds,280,2013-04-14 17:31:00
12:56 PM,50.0,43.0,77,29.39,10.0,West,12.7,-,N/A,,Mostly Cloudy,260,2013-04-14 17:56:00
1:56 PM,53.1,45.0,74,29.41,10.0,West,23.0,28.8,N/A,,Mostly Cloudy,260,2013-04-14 18:56:00
2:56 PM,51.1,37.9,61,29.41,10.0,WNW,19.6,26.5,N/A,,Mostly Cloudy,290,2013-04-14 19:56:00
3:56 PM,55.9,36.0,47,29.44,10.0,West,19.6,29.9,N/A,,Clear,260,2013-04-14 20:56:00
4:56 PM,55.9,36.0,47,29.46,10.0,West,19.6,27.6,N/A,,Partly Cloudy,270,2013-04-14 21:56:00
5:56 PM,52.0,37.9,59,29.52,10.0,WNW,19.6,29.9,N/A,,Partly Cloudy,290,2013-04-14 22:56:00
6:56 PM,51.1,36.0,56,29.56,10.0,WNW,12.7,-,N/A,,Clear,290,2013-04-14 23:56:00
7:56 PM,48.0,34.0,58,29.59,10.0,West,11.5,-,N/A,,Clear,270,2013-04-15 00:56:00
8:56 PM,45.0,33.1,63,29.62,10.0,West,8.1,-,N/A,,Clear,260,2013-04-15 01:56:00
9:56 PM,43.0,32.0,65,29.63,10.0,WSW,8.1,-,N/A,,Clear,240,2013-04-15 02:56:00
10:56 PM,39.9,32.0,73,29.66,10.0,SW,9.2,-,N/A,,Clear,220,2013-04-15 03:56:00
11:56 PM,37.9,30.0,73,29.69,10.0,WNW,9.2,-,N/A,,Clear,290,2013-04-15 04:56:00